sensor_id;sensor_type;location;lat;lon;timestamp;temperature;humidity
78779;DHT22;68121;52.404;5.318;2024-03-07T00:01:15;6.80;69.90
78779;DHT22;68121;52.404;5.318;2024-03-07T00:03:42;6.80;69.90
78779;DHT22;68121;52.404;5.318;2024-03-07T00:06:08;6.70;69.90
78779;DHT22;68121;52.404;5.318;2024-03-07T00:08:34;6.70;69.90
78779;DHT22;68121;52.404;5.318;2024-03-07T00:11:00;6.70;70.00
78779;DHT22;68121;52.404;5.318;2024-03-07T00:13:27;6.70;70.00
78779;DHT22;68121;52.404;5.318;2024-03-07T00:15:55;6.60;69.90
78779;DHT22;68121;52.404;5.318;2024-03-07T00:18:21;6.60;70.10
78779;DHT22;68121;52.404;5.318;2024-03-07T00:20:47;6.50;70.00
78779;DHT22;68121;52.404;5.318;2024-03-07T00:23:13;6.50;70.00
78779;DHT22;68121;52.404;5.318;2024-03-07T00:25:39;6.50;70.10
78779;DHT22;68121;52.404;5.318;2024-03-07T00:28:05;6.50;70.10
78779;DHT22;68121;52.404;5.318;2024-03-07T00:30:32;6.40;70.00
78779;DHT22;68121;52.404;5.318;2024-03-07T00:32:59;6.40;70.10
78779;DHT22;68121;52.404;5.318;2024-03-07T00:35:25;6.40;70.00
78779;DHT22;68121;52.404;5.318;2024-03-07T00:37:51;6.30;70.00
78779;DHT22;68121;52.404;5.318;2024-03-07T00:40:18;6.30;70.00
78779;DHT22;68121;52.404;5.318;2024-03-07T00:42:44;6.20;70.00
78779;DHT22;68121;52.404;5.318;2024-03-07T00:45:10;6.20;70.10
78779;DHT22;68121;52.404;5.318;2024-03-07T00:47:36;6.10;70.10
78779;DHT22;68121;52.404;5.318;2024-03-07T00:50:04;6.10;70.20
78779;DHT22;68121;52.404;5.318;2024-03-07T00:52:30;6.10;70.20
78779;DHT22;68121;52.404;5.318;2024-03-07T00:54:56;6.00;70.30
78779;DHT22;68121;52.404;5.318;2024-03-07T00:57:22;6.00;70.20
78779;DHT22;68121;52.404;5.318;2024-03-07T00:59:48;6.00;70.30
78779;DHT22;68121;52.404;5.318;2024-03-07T01:02:14;5.90;70.30
78779;DHT22;68121;52.404;5.318;2024-03-07T01:04:42;5.90;70.30
78779;DHT22;68121;52.404;5.318;2024-03-07T01:07:09;5.90;70.30
78779;DHT22;68121;52.404;5.318;2024-03-07T01:09:35;5.80;70.30
78779;DHT22;68121;52.404;5.318;2024-03-07T01:12:01;5.80;70.40
78779;DHT22;68121;52.404;5.318;2024-03-07T01:14:31;5.80;70.40
78779;DHT22;68121;52.404;5.318;2024-03-07T01:16:58;5.80;70.50
78779;DHT22;68121;52.404;5.318;2024-03-07T01:19:24;5.80;70.50
78779;DHT22;68121;52.404;5.318;2024-03-07T01:21:50;5.70;70.50
78779;DHT22;68121;52.404;5.318;2024-03-07T01:24:16;5.70;70.50
78779;DHT22;68121;52.404;5.318;2024-03-07T01:26:44;5.70;70.50
78779;DHT22;68121;52.404;5.318;2024-03-07T01:29:10;5.70;70.70
78779;DHT22;68121;52.404;5.318;2024-03-07T01:31:36;5.70;70.70
78779;DHT22;68121;52.404;5.318;2024-03-07T01:34:02;5.70;70.80
78779;DHT22;68121;52.404;5.318;2024-03-07T01:36:28;5.70;70.80
78779;DHT22;68121;52.404;5.318;2024-03-07T01:38:56;5.70;70.70
78779;DHT22;68121;52.404;5.318;2024-03-07T01:41:22;5.70;70.80
78779;DHT22;68121;52.404;5.318;2024-03-07T01:43:48;5.70;70.80
78779;DHT22;68121;52.404;5.318;2024-03-07T01:46:14;5.70;70.90
78779;DHT22;68121;52.404;5.318;2024-03-07T01:48:40;5.70;70.90
78779;DHT22;68121;52.404;5.318;2024-03-07T01:51:06;5.70;70.90
78779;DHT22;68121;52.404;5.318;2024-03-07T01:53:33;5.70;71.00
78779;DHT22;68121;52.404;5.318;2024-03-07T01:56:00;5.70;71.00
78779;DHT22;68121;52.404;5.318;2024-03-07T01:58:29;5.70;71.00
78779;DHT22;68121;52.404;5.318;2024-03-07T02:00:55;5.70;71.10
78779;DHT22;68121;52.404;5.318;2024-03-07T02:03:21;5.70;71.10
78779;DHT22;68121;52.404;5.318;2024-03-07T02:05:47;5.70;71.10
78779;DHT22;68121;52.404;5.318;2024-03-07T02:08:13;5.70;71.10
78779;DHT22;68121;52.404;5.318;2024-03-07T02:10:41;5.70;71.10
78779;DHT22;68121;52.404;5.318;2024-03-07T02:13:07;5.70;71.20
78779;DHT22;68121;52.404;5.318;2024-03-07T02:15:33;5.70;71.20
78779;DHT22;68121;52.404;5.318;2024-03-07T02:17:59;5.70;71.20
78779;DHT22;68121;52.404;5.318;2024-03-07T02:20:25;5.70;71.30
78779;DHT22;68121;52.404;5.318;2024-03-07T02:22:54;5.70;71.20
78779;DHT22;68121;52.404;5.318;2024-03-07T02:25:21;5.60;71.30
78779;DHT22;68121;52.404;5.318;2024-03-07T02:27:47;5.60;71.30
78779;DHT22;68121;52.404;5.318;2024-03-07T02:30:13;5.60;71.30
78779;DHT22;68121;52.404;5.318;2024-03-07T02:32:40;5.60;71.30
78779;DHT22;68121;52.404;5.318;2024-03-07T02:35:07;5.60;71.30
78779;DHT22;68121;52.404;5.318;2024-03-07T02:37:34;5.60;71.40
78779;DHT22;68121;52.404;5.318;2024-03-07T02:40:00;5.60;71.50
78779;DHT22;68121;52.404;5.318;2024-03-07T02:42:27;5.60;71.50
78779;DHT22;68121;52.404;5.318;2024-03-07T02:44:53;5.60;71.50
78779;DHT22;68121;52.404;5.318;2024-03-07T02:47:19;5.50;71.50
78779;DHT22;68121;52.404;5.318;2024-03-07T02:49:45;5.50;71.30
78779;DHT22;68121;52.404;5.318;2024-03-07T02:52:11;5.50;71.40
78779;DHT22;68121;52.404;5.318;2024-03-07T02:54:37;5.30;71.50
78779;DHT22;68121;52.404;5.318;2024-03-07T02:57:03;5.30;71.50
78779;DHT22;68121;52.404;5.318;2024-03-07T02:59:29;5.30;71.50
78779;DHT22;68121;52.404;5.318;2024-03-07T03:01:55;5.30;71.50
78779;DHT22;68121;52.404;5.318;2024-03-07T03:04:21;5.30;71.50
78779;DHT22;68121;52.404;5.318;2024-03-07T03:06:47;5.30;71.50
78779;DHT22;68121;52.404;5.318;2024-03-07T03:09:13;5.30;71.50
78779;DHT22;68121;52.404;5.318;2024-03-07T03:11:46;5.20;71.50
78779;DHT22;68121;52.404;5.318;2024-03-07T03:14:12;5.20;71.60
78779;DHT22;68121;52.404;5.318;2024-03-07T03:16:42;5.20;71.50
78779;DHT22;68121;52.404;5.318;2024-03-07T03:19:10;5.10;71.50
78779;DHT22;68121;52.404;5.318;2024-03-07T03:21:36;5.20;71.60
78779;DHT22;68121;52.404;5.318;2024-03-07T03:24:03;5.10;71.60
78779;DHT22;68121;52.404;5.318;2024-03-07T03:26:30;5.10;71.60
78779;DHT22;68121;52.404;5.318;2024-03-07T03:28:57;5.10;71.70
78779;DHT22;68121;52.404;5.318;2024-03-07T03:31:24;5.10;71.70
78779;DHT22;68121;52.404;5.318;2024-03-07T03:33:50;5.10;71.70
78779;DHT22;68121;52.404;5.318;2024-03-07T03:36:16;5.10;71.80
78779;DHT22;68121;52.404;5.318;2024-03-07T03:38:42;5.10;71.70
78779;DHT22;68121;52.404;5.318;2024-03-07T03:41:08;5.10;71.80
78779;DHT22;68121;52.404;5.318;2024-03-07T03:43:35;5.10;71.80
78779;DHT22;68121;52.404;5.318;2024-03-07T03:46:01;5.10;71.70
78779;DHT22;68121;52.404;5.318;2024-03-07T03:48:28;5.10;71.80
78779;DHT22;68121;52.404;5.318;2024-03-07T03:50:54;5.10;71.80
78779;DHT22;68121;52.404;5.318;2024-03-07T03:53:20;5.10;71.80
78779;DHT22;68121;52.404;5.318;2024-03-07T03:55:46;5.00;71.90
78779;DHT22;68121;52.404;5.318;2024-03-07T03:58:12;5.00;71.80
78779;DHT22;68121;52.404;5.318;2024-03-07T04:00:39;5.00;71.80
78779;DHT22;68121;52.404;5.318;2024-03-07T04:03:05;5.00;71.90
78779;DHT22;68121;52.404;5.318;2024-03-07T04:05:31;5.00;71.80
78779;DHT22;68121;52.404;5.318;2024-03-07T04:07:57;5.00;71.80
78779;DHT22;68121;52.404;5.318;2024-03-07T04:10:24;4.90;71.90
78779;DHT22;68121;52.404;5.318;2024-03-07T04:12:50;4.90;72.00
78779;DHT22;68121;52.404;5.318;2024-03-07T04:15:17;4.90;71.90
78779;DHT22;68121;52.404;5.318;2024-03-07T04:17:43;4.90;72.00
78779;DHT22;68121;52.404;5.318;2024-03-07T04:20:12;4.80;72.00
78779;DHT22;68121;52.404;5.318;2024-03-07T04:22:39;4.80;72.00
78779;DHT22;68121;52.404;5.318;2024-03-07T04:25:06;4.70;72.00
78779;DHT22;68121;52.404;5.318;2024-03-07T04:27:36;4.70;72.00
78779;DHT22;68121;52.404;5.318;2024-03-07T04:30:06;4.70;72.00
78779;DHT22;68121;52.404;5.318;2024-03-07T04:32:33;4.70;72.10
78779;DHT22;68121;52.404;5.318;2024-03-07T04:35:04;4.70;72.00
78779;DHT22;68121;52.404;5.318;2024-03-07T04:37:39;4.70;72.00
78779;DHT22;68121;52.404;5.318;2024-03-07T04:40:08;4.60;72.10
78779;DHT22;68121;52.404;5.318;2024-03-07T04:42:48;4.60;72.10
78779;DHT22;68121;52.404;5.318;2024-03-07T04:45:15;4.60;72.00
78779;DHT22;68121;52.404;5.318;2024-03-07T04:47:42;4.50;72.10
78779;DHT22;68121;52.404;5.318;2024-03-07T04:50:11;4.50;72.20
78779;DHT22;68121;52.404;5.318;2024-03-07T04:52:39;4.50;72.20
78779;DHT22;68121;52.404;5.318;2024-03-07T04:55:09;4.50;72.10
78779;DHT22;68121;52.404;5.318;2024-03-07T04:57:37;4.50;72.20
78779;DHT22;68121;52.404;5.318;2024-03-07T05:00:06;4.50;72.10
78779;DHT22;68121;52.404;5.318;2024-03-07T05:02:33;4.50;72.10
78779;DHT22;68121;52.404;5.318;2024-03-07T05:04:59;4.50;72.20
78779;DHT22;68121;52.404;5.318;2024-03-07T05:07:25;4.50;72.20
78779;DHT22;68121;52.404;5.318;2024-03-07T05:09:52;4.50;72.20
78779;DHT22;68121;52.404;5.318;2024-03-07T05:12:18;4.50;72.20
78779;DHT22;68121;52.404;5.318;2024-03-07T05:14:44;4.50;72.20
78779;DHT22;68121;52.404;5.318;2024-03-07T05:17:10;4.50;72.20
78779;DHT22;68121;52.404;5.318;2024-03-07T05:19:36;4.50;72.20
78779;DHT22;68121;52.404;5.318;2024-03-07T05:22:02;4.50;72.20
78779;DHT22;68121;52.404;5.318;2024-03-07T05:24:32;4.50;72.20
78779;DHT22;68121;52.404;5.318;2024-03-07T05:26:59;4.50;72.20
78779;DHT22;68121;52.404;5.318;2024-03-07T05:29:26;4.50;72.10
78779;DHT22;68121;52.404;5.318;2024-03-07T05:31:52;4.40;72.10
78779;DHT22;68121;52.404;5.318;2024-03-07T05:34:18;4.40;72.20
78779;DHT22;68121;52.404;5.318;2024-03-07T05:36:45;4.40;72.20
78779;DHT22;68121;52.404;5.318;2024-03-07T05:39:16;4.30;72.20
78779;DHT22;68121;52.404;5.318;2024-03-07T05:41:44;4.30;72.20
78779;DHT22;68121;52.404;5.318;2024-03-07T05:44:14;4.30;72.30
78779;DHT22;68121;52.404;5.318;2024-03-07T05:46:41;4.20;72.20
78779;DHT22;68121;52.404;5.318;2024-03-07T05:49:13;4.20;72.20
78779;DHT22;68121;52.404;5.318;2024-03-07T05:51:39;4.20;72.20
78779;DHT22;68121;52.404;5.318;2024-03-07T05:54:07;4.10;72.20
78779;DHT22;68121;52.404;5.318;2024-03-07T05:56:35;4.10;72.30
78779;DHT22;68121;52.404;5.318;2024-03-07T05:59:04;4.10;72.30
78779;DHT22;68121;52.404;5.318;2024-03-07T06:01:31;4.00;72.20
78779;DHT22;68121;52.404;5.318;2024-03-07T06:04:04;4.00;72.30
78779;DHT22;68121;52.404;5.318;2024-03-07T06:06:35;4.00;72.30
78779;DHT22;68121;52.404;5.318;2024-03-07T06:09:05;4.00;72.20
78779;DHT22;68121;52.404;5.318;2024-03-07T06:11:34;4.00;72.20
78779;DHT22;68121;52.404;5.318;2024-03-07T06:14:02;4.00;72.20
78779;DHT22;68121;52.404;5.318;2024-03-07T06:16:37;4.00;72.30
78779;DHT22;68121;52.404;5.318;2024-03-07T06:19:05;4.00;72.20
78779;DHT22;68121;52.404;5.318;2024-03-07T06:21:36;3.90;72.20
78779;DHT22;68121;52.404;5.318;2024-03-07T06:24:03;3.90;72.20
78779;DHT22;68121;52.404;5.318;2024-03-07T06:26:33;3.90;72.20
78779;DHT22;68121;52.404;5.318;2024-03-07T06:29:18;4.00;72.30
78779;DHT22;68121;52.404;5.318;2024-03-07T06:31:44;4.00;72.20
78779;DHT22;68121;52.404;5.318;2024-03-07T06:34:12;4.00;72.20
78779;DHT22;68121;52.404;5.318;2024-03-07T06:36:39;4.00;72.10
78779;DHT22;68121;52.404;5.318;2024-03-07T06:39:06;4.00;72.10
78779;DHT22;68121;52.404;5.318;2024-03-07T06:41:33;4.00;72.10
78779;DHT22;68121;52.404;5.318;2024-03-07T06:44:00;4.00;72.10
78779;DHT22;68121;52.404;5.318;2024-03-07T06:46:26;4.00;72.10
78779;DHT22;68121;52.404;5.318;2024-03-07T06:48:52;4.00;72.10
78779;DHT22;68121;52.404;5.318;2024-03-07T06:51:18;4.00;71.90
78779;DHT22;68121;52.404;5.318;2024-03-07T06:53:45;4.00;72.00
78779;DHT22;68121;52.404;5.318;2024-03-07T06:56:14;4.10;71.90
78779;DHT22;68121;52.404;5.318;2024-03-07T06:58:42;4.10;71.90
78779;DHT22;68121;52.404;5.318;2024-03-07T07:01:10;4.10;71.80
78779;DHT22;68121;52.404;5.318;2024-03-07T07:03:38;4.20;71.70
78779;DHT22;68121;52.404;5.318;2024-03-07T07:06:04;4.20;71.70
78779;DHT22;68121;52.404;5.318;2024-03-07T07:08:33;4.30;71.60
78779;DHT22;68121;52.404;5.318;2024-03-07T07:10:59;4.30;71.60
78779;DHT22;68121;52.404;5.318;2024-03-07T07:13:25;4.40;71.50
78779;DHT22;68121;52.404;5.318;2024-03-07T07:15:52;4.50;71.30
78779;DHT22;68121;52.404;5.318;2024-03-07T07:18:19;4.50;71.20
78779;DHT22;68121;52.404;5.318;2024-03-07T07:20:45;4.70;71.10
78779;DHT22;68121;52.404;5.318;2024-03-07T07:23:13;4.70;71.10
78779;DHT22;68121;52.404;5.318;2024-03-07T07:25:39;4.80;70.90
78779;DHT22;68121;52.404;5.318;2024-03-07T07:28:06;4.90;70.80
78779;DHT22;68121;52.404;5.318;2024-03-07T07:30:33;5.00;70.80
78779;DHT22;68121;52.404;5.318;2024-03-07T07:32:59;5.00;70.70
78779;DHT22;68121;52.404;5.318;2024-03-07T07:35:25;5.10;70.70
78779;DHT22;68121;52.404;5.318;2024-03-07T07:37:52;5.20;70.60
78779;DHT22;68121;52.404;5.318;2024-03-07T07:40:22;5.30;70.40
78779;DHT22;68121;52.404;5.318;2024-03-07T07:42:50;5.30;70.40
78779;DHT22;68121;52.404;5.318;2024-03-07T07:45:20;5.40;70.30
78779;DHT22;68121;52.404;5.318;2024-03-07T07:47:48;5.50;70.10
78779;DHT22;68121;52.404;5.318;2024-03-07T07:50:17;5.60;70.00
78779;DHT22;68121;52.404;5.318;2024-03-07T07:52:47;5.70;69.90
78779;DHT22;68121;52.404;5.318;2024-03-07T07:55:18;5.80;69.70
78779;DHT22;68121;52.404;5.318;2024-03-07T07:57:44;5.80;69.60
78779;DHT22;68121;52.404;5.318;2024-03-07T08:00:12;5.80;69.70
78779;DHT22;68121;52.404;5.318;2024-03-07T08:05:19;6.00;69.60
78779;DHT22;68121;52.404;5.318;2024-03-07T08:07:46;6.10;69.50
78779;DHT22;68121;52.404;5.318;2024-03-07T08:10:14;6.30;69.00
78779;DHT22;68121;52.404;5.318;2024-03-07T08:12:41;6.30;69.10
78779;DHT22;68121;52.404;5.318;2024-03-07T08:15:12;6.40;69.10
78779;DHT22;68121;52.404;5.318;2024-03-07T08:17:46;6.50;68.80
78779;DHT22;68121;52.404;5.318;2024-03-07T08:20:16;6.60;68.70
78779;DHT22;68121;52.404;5.318;2024-03-07T08:22:50;6.70;68.60
78779;DHT22;68121;52.404;5.318;2024-03-07T08:25:20;6.70;68.50
78779;DHT22;68121;52.404;5.318;2024-03-07T08:27:48;6.70;68.50
78779;DHT22;68121;52.404;5.318;2024-03-07T08:30:15;6.80;68.60
78779;DHT22;68121;52.404;5.318;2024-03-07T08:32:45;7.00;68.40
78779;DHT22;68121;52.404;5.318;2024-03-07T08:35:12;7.10;68.00
78779;DHT22;68121;52.404;5.318;2024-03-07T08:37:38;7.10;67.90
78779;DHT22;68121;52.404;5.318;2024-03-07T08:40:06;7.10;68.00
78779;DHT22;68121;52.404;5.318;2024-03-07T08:42:42;7.20;67.90
78779;DHT22;68121;52.404;5.318;2024-03-07T08:45:08;7.30;68.00
78779;DHT22;68121;52.404;5.318;2024-03-07T08:47:37;7.50;67.80
78779;DHT22;68121;52.404;5.318;2024-03-07T08:50:04;7.60;67.60
78779;DHT22;68121;52.404;5.318;2024-03-07T08:52:35;7.80;67.20
78779;DHT22;68121;52.404;5.318;2024-03-07T08:55:03;7.70;67.20
78779;DHT22;68121;52.404;5.318;2024-03-07T08:57:30;7.80;67.20
78779;DHT22;68121;52.404;5.318;2024-03-07T08:59:56;7.90;67.20
78779;DHT22;68121;52.404;5.318;2024-03-07T09:02:23;8.00;67.10
78779;DHT22;68121;52.404;5.318;2024-03-07T09:04:49;8.00;66.90
78779;DHT22;68121;52.404;5.318;2024-03-07T09:07:15;8.10;66.80
78779;DHT22;68121;52.404;5.318;2024-03-07T09:09:43;8.20;66.70
78779;DHT22;68121;52.404;5.318;2024-03-07T09:12:11;8.30;66.60
78779;DHT22;68121;52.404;5.318;2024-03-07T09:14:37;8.40;66.40
78779;DHT22;68121;52.404;5.318;2024-03-07T09:17:04;8.50;66.30
78779;DHT22;68121;52.404;5.318;2024-03-07T09:19:31;8.60;66.20
78779;DHT22;68121;52.404;5.318;2024-03-07T09:21:57;8.80;65.80
78779;DHT22;68121;52.404;5.318;2024-03-07T09:24:23;8.80;65.50
78779;DHT22;68121;52.404;5.318;2024-03-07T09:26:49;8.80;65.40
78779;DHT22;68121;52.404;5.318;2024-03-07T09:29:16;8.80;65.30
78779;DHT22;68121;52.404;5.318;2024-03-07T09:31:46;8.80;65.20
78779;DHT22;68121;52.404;5.318;2024-03-07T09:34:14;8.80;65.10
78779;DHT22;68121;52.404;5.318;2024-03-07T09:36:40;8.70;65.40
78779;DHT22;68121;52.404;5.318;2024-03-07T09:39:08;8.90;65.50
78779;DHT22;68121;52.404;5.318;2024-03-07T09:41:35;9.20;65.10
78779;DHT22;68121;52.404;5.318;2024-03-07T09:44:01;9.40;64.70
78779;DHT22;68121;52.404;5.318;2024-03-07T09:46:28;9.50;64.40
78779;DHT22;68121;52.404;5.318;2024-03-07T09:48:58;9.50;64.20
78779;DHT22;68121;52.404;5.318;2024-03-07T09:51:24;9.40;64.30
78779;DHT22;68121;52.404;5.318;2024-03-07T09:53:52;9.40;64.20
78779;DHT22;68121;52.404;5.318;2024-03-07T09:56:22;9.50;64.00
78779;DHT22;68121;52.404;5.318;2024-03-07T09:58:52;9.60;64.00
78779;DHT22;68121;52.404;5.318;2024-03-07T10:01:25;9.70;63.70
78779;DHT22;68121;52.404;5.318;2024-03-07T10:03:58;9.70;63.50
78779;DHT22;68121;52.404;5.318;2024-03-07T10:06:24;9.70;63.10
78779;DHT22;68121;52.404;5.318;2024-03-07T10:08:53;9.70;63.50
78779;DHT22;68121;52.404;5.318;2024-03-07T10:11:19;9.80;63.30
78779;DHT22;68121;52.404;5.318;2024-03-07T10:13:46;10.00;62.90
78779;DHT22;68121;52.404;5.318;2024-03-07T10:16:16;9.90;62.80
78779;DHT22;68121;52.404;5.318;2024-03-07T10:18:44;9.80;62.60
78779;DHT22;68121;52.404;5.318;2024-03-07T10:21:14;9.80;62.70
78779;DHT22;68121;52.404;5.318;2024-03-07T10:23:42;10.00;62.90
78779;DHT22;68121;52.404;5.318;2024-03-07T10:26:10;10.10;62.70
78779;DHT22;68121;52.404;5.318;2024-03-07T10:28:38;10.40;62.30
78779;DHT22;68121;52.404;5.318;2024-03-07T10:31:04;10.60;62.10
78779;DHT22;68121;52.404;5.318;2024-03-07T10:33:40;10.80;61.90
78779;DHT22;68121;52.404;5.318;2024-03-07T10:36:07;11.00;61.70
78779;DHT22;68121;52.404;5.318;2024-03-07T10:38:37;11.10;61.40
78779;DHT22;68121;52.404;5.318;2024-03-07T10:41:04;11.10;61.20
78779;DHT22;68121;52.404;5.318;2024-03-07T10:43:37;11.00;61.40
78779;DHT22;68121;52.404;5.318;2024-03-07T10:46:05;11.10;61.40
78779;DHT22;68121;52.404;5.318;2024-03-07T10:48:38;11.30;60.90
78779;DHT22;68121;52.404;5.318;2024-03-07T10:51:28;11.10;60.10
78779;DHT22;68121;52.404;5.318;2024-03-07T10:54:20;10.70;60.30
78779;DHT22;68121;52.404;5.318;2024-03-07T10:59:26;10.80;61.00
78779;DHT22;68121;52.404;5.318;2024-03-07T11:02:13;11.10;60.80
78779;DHT22;68121;52.404;5.318;2024-03-07T11:04:42;11.30;60.40
78779;DHT22;68121;52.404;5.318;2024-03-07T11:07:08;11.30;60.30
78779;DHT22;68121;52.404;5.318;2024-03-07T11:09:37;11.30;59.80
78779;DHT22;68121;52.404;5.318;2024-03-07T11:12:04;11.10;59.70
78779;DHT22;68121;52.404;5.318;2024-03-07T11:14:31;10.90;60.00
78779;DHT22;68121;52.404;5.318;2024-03-07T11:16:58;11.00;60.20
78779;DHT22;68121;52.404;5.318;2024-03-07T11:19:28;11.10;59.30
78779;DHT22;68121;52.404;5.318;2024-03-07T11:22:00;11.00;58.80
78779;DHT22;68121;52.404;5.318;2024-03-07T11:24:29;10.70;58.70
78779;DHT22;68121;52.404;5.318;2024-03-07T11:26:57;10.60;58.90
78779;DHT22;68121;52.404;5.318;2024-03-07T11:32:10;10.70;58.70
78779;DHT22;68121;52.404;5.318;2024-03-07T11:34:41;10.80;58.60
78779;DHT22;68121;52.404;5.318;2024-03-07T11:37:08;10.80;58.60
78779;DHT22;68121;52.404;5.318;2024-03-07T11:39:44;10.90;58.80
78779;DHT22;68121;52.404;5.318;2024-03-07T11:44:55;11.30;58.50
78779;DHT22;68121;52.404;5.318;2024-03-07T11:47:35;11.30;57.90
78779;DHT22;68121;52.404;5.318;2024-03-07T11:50:03;11.20;58.10
78779;DHT22;68121;52.404;5.318;2024-03-07T11:52:35;11.30;58.30
78779;DHT22;68121;52.404;5.318;2024-03-07T11:55:03;11.50;58.40
78779;DHT22;68121;52.404;5.318;2024-03-07T11:57:29;11.70;57.90
78779;DHT22;68121;52.404;5.318;2024-03-07T11:59:59;11.70;57.50
78779;DHT22;68121;52.404;5.318;2024-03-07T12:02:34;11.50;57.40
78779;DHT22;68121;52.404;5.318;2024-03-07T12:05:04;11.40;57.70
78779;DHT22;68121;52.404;5.318;2024-03-07T12:07:34;11.40;57.70
78779;DHT22;68121;52.404;5.318;2024-03-07T12:10:01;11.30;57.80
78779;DHT22;68121;52.404;5.318;2024-03-07T12:12:31;11.50;58.00
78779;DHT22;68121;52.404;5.318;2024-03-07T12:14:59;11.50;57.70
78779;DHT22;68121;52.404;5.318;2024-03-07T12:17:25;11.60;57.50
78779;DHT22;68121;52.404;5.318;2024-03-07T12:19:51;11.60;57.50
78779;DHT22;68121;52.404;5.318;2024-03-07T12:22:21;11.70;57.40
78779;DHT22;68121;52.404;5.318;2024-03-07T12:25:04;11.60;57.20
78779;DHT22;68121;52.404;5.318;2024-03-07T12:27:34;11.70;57.40
78779;DHT22;68121;52.404;5.318;2024-03-07T12:30:00;11.90;57.50
78779;DHT22;68121;52.404;5.318;2024-03-07T12:32:33;12.00;57.10
78779;DHT22;68121;52.404;5.318;2024-03-07T12:34:59;11.90;57.00
78779;DHT22;68121;52.404;5.318;2024-03-07T12:37:25;11.70;57.30
78779;DHT22;68121;52.404;5.318;2024-03-07T12:39:55;11.50;57.10
78779;DHT22;68121;52.404;5.318;2024-03-07T12:42:31;11.60;57.30
78779;DHT22;68121;52.404;5.318;2024-03-07T12:44:57;11.70;57.30
78779;DHT22;68121;52.404;5.318;2024-03-07T12:47:25;11.80;57.30
78779;DHT22;68121;52.404;5.318;2024-03-07T12:49:53;11.90;57.30
78779;DHT22;68121;52.404;5.318;2024-03-07T12:52:20;11.90;57.40
78779;DHT22;68121;52.404;5.318;2024-03-07T12:54:46;12.00;57.40
78779;DHT22;68121;52.404;5.318;2024-03-07T12:57:14;12.10;57.40
78779;DHT22;68121;52.404;5.318;2024-03-07T12:59:40;12.20;57.50
78779;DHT22;68121;52.404;5.318;2024-03-07T13:02:10;12.50;57.50
78779;DHT22;68121;52.404;5.318;2024-03-07T13:04:37;12.50;57.30
78779;DHT22;68121;52.404;5.318;2024-03-07T13:07:04;12.60;57.00
78779;DHT22;68121;52.404;5.318;2024-03-07T13:09:30;12.50;57.20
78779;DHT22;68121;52.404;5.318;2024-03-07T13:12:00;12.30;57.50
78779;DHT22;68121;52.404;5.318;2024-03-07T13:14:27;12.50;57.60
78779;DHT22;68121;52.404;5.318;2024-03-07T13:17:05;12.50;57.50
78779;DHT22;68121;52.404;5.318;2024-03-07T13:19:34;12.70;57.30
78779;DHT22;68121;52.404;5.318;2024-03-07T13:22:00;12.60;57.30
78779;DHT22;68121;52.404;5.318;2024-03-07T13:24:27;12.50;57.40
78779;DHT22;68121;52.404;5.318;2024-03-07T13:26:54;12.40;57.20
78779;DHT22;68121;52.404;5.318;2024-03-07T13:29:20;12.30;57.60
78779;DHT22;68121;52.404;5.318;2024-03-07T13:31:55;12.30;57.80
78779;DHT22;68121;52.404;5.318;2024-03-07T13:34:22;12.50;57.70
78779;DHT22;68121;52.404;5.318;2024-03-07T13:36:51;12.50;57.80
78779;DHT22;68121;52.404;5.318;2024-03-07T13:39:18;12.50;57.70
78779;DHT22;68121;52.404;5.318;2024-03-07T13:41:44;12.50;57.70
78779;DHT22;68121;52.404;5.318;2024-03-07T13:44:14;12.50;57.60
78779;DHT22;68121;52.404;5.318;2024-03-07T13:46:41;12.30;57.80
78779;DHT22;68121;52.404;5.318;2024-03-07T13:49:07;12.20;58.00
78779;DHT22;68121;52.404;5.318;2024-03-07T13:51:38;12.10;58.00
78779;DHT22;68121;52.404;5.318;2024-03-07T13:54:13;12.10;58.00
78779;DHT22;68121;52.404;5.318;2024-03-07T13:57:15;11.90;58.00
78779;DHT22;68121;52.404;5.318;2024-03-07T14:03:22;11.60;58.50
78779;DHT22;68121;52.404;5.318;2024-03-07T14:08:58;11.10;59.30
78779;DHT22;68121;52.404;5.318;2024-03-07T14:24:37;10.70;60.00
78779;DHT22;68121;52.404;5.318;2024-03-07T14:30:58;10.40;60.20
78779;DHT22;68121;52.404;5.318;2024-03-07T14:33:10;10.20;60.40
78779;DHT22;68121;52.404;5.318;2024-03-07T14:35:58;10.10;60.70
78779;DHT22;68121;52.404;5.318;2024-03-07T14:38:30;10.00;60.80
78779;DHT22;68121;52.404;5.318;2024-03-07T14:41:05;9.90;61.00
78779;DHT22;68121;52.404;5.318;2024-03-07T14:43:34;9.80;61.20
78779;DHT22;68121;52.404;5.318;2024-03-07T14:46:00;9.70;61.20
78779;DHT22;68121;52.404;5.318;2024-03-07T14:48:26;9.70;61.40
78779;DHT22;68121;52.404;5.318;2024-03-07T14:50:53;9.70;61.40
78779;DHT22;68121;52.404;5.318;2024-03-07T14:53:19;9.60;61.40
78779;DHT22;68121;52.404;5.318;2024-03-07T14:55:49;9.60;61.60
78779;DHT22;68121;52.404;5.318;2024-03-07T14:58:15;9.60;61.70
78779;DHT22;68121;52.404;5.318;2024-03-07T15:00:42;9.60;61.80
78779;DHT22;68121;52.404;5.318;2024-03-07T15:03:14;9.60;61.70
78779;DHT22;68121;52.404;5.318;2024-03-07T15:05:43;9.40;61.90
78779;DHT22;68121;52.404;5.318;2024-03-07T15:08:17;9.40;62.00
78779;DHT22;68121;52.404;5.318;2024-03-07T15:10:59;9.50;62.00
78779;DHT22;68121;52.404;5.318;2024-03-07T15:13:29;9.70;61.90
78779;DHT22;68121;52.404;5.318;2024-03-07T15:15:55;9.70;61.80
78779;DHT22;68121;52.404;5.318;2024-03-07T15:18:22;9.60;61.90
78779;DHT22;68121;52.404;5.318;2024-03-07T15:20:48;9.60;61.90
78779;DHT22;68121;52.404;5.318;2024-03-07T15:23:14;9.50;61.90
78779;DHT22;68121;52.404;5.318;2024-03-07T15:25:40;9.50;62.00
78779;DHT22;68121;52.404;5.318;2024-03-07T15:28:06;9.50;61.90
78779;DHT22;68121;52.404;5.318;2024-03-07T15:30:32;9.50;61.80
78779;DHT22;68121;52.404;5.318;2024-03-07T15:33:01;9.40;61.90
78779;DHT22;68121;52.404;5.318;2024-03-07T15:35:28;9.40;61.90
78779;DHT22;68121;52.404;5.318;2024-03-07T15:37:55;9.20;62.10
78779;DHT22;68121;52.404;5.318;2024-03-07T15:40:21;9.20;62.20
78779;DHT22;68121;52.404;5.318;2024-03-07T15:42:48;9.20;62.20
78779;DHT22;68121;52.404;5.318;2024-03-07T15:45:22;9.20;62.30
78779;DHT22;68121;52.404;5.318;2024-03-07T15:47:52;9.00;62.40
78779;DHT22;68121;52.404;5.318;2024-03-07T15:50:19;9.00;62.50
78779;DHT22;68121;52.404;5.318;2024-03-07T15:52:49;8.90;62.60
78779;DHT22;68121;52.404;5.318;2024-03-07T15:55:20;8.80;62.70
78779;DHT22;68121;52.404;5.318;2024-03-07T15:57:51;8.60;62.80
78779;DHT22;68121;52.404;5.318;2024-03-07T16:00:20;8.60;62.90
78779;DHT22;68121;52.404;5.318;2024-03-07T16:02:56;8.60;63.00
78779;DHT22;68121;52.404;5.318;2024-03-07T16:05:25;8.60;63.10
78779;DHT22;68121;52.404;5.318;2024-03-07T16:07:52;8.60;63.20
78779;DHT22;68121;52.404;5.318;2024-03-07T16:10:19;8.60;63.20
78779;DHT22;68121;52.404;5.318;2024-03-07T16:12:46;8.50;63.00
78779;DHT22;68121;52.404;5.318;2024-03-07T16:15:12;8.40;63.00
78779;DHT22;68121;52.404;5.318;2024-03-07T16:17:38;8.30;63.00
78779;DHT22;68121;52.404;5.318;2024-03-07T16:20:05;8.20;63.00
78779;DHT22;68121;52.404;5.318;2024-03-07T16:22:47;8.20;63.10